Time;durP1;ratioP1;P1;durP2;ratioP2;P2;SDS_P1;SDS_P2;PMS_P1;PMS_P2;Temp;Humidity;BMP_temperature;BMP_pressure;BME280_temperature;BME280_humidity;BME280_pressure;Samples;Min_cycle;Max_cycle;Signal;HPM_P1;HPM_P2
2020/12/12 00:00:16;;;;;;;28.38;17.25;;;;;;;2.29;100.00;96562.00;4999412;28;45505;-84
2020/12/12 00:02:41;;;;;;;27.50;17.38;;;;;;;2.29;100.00;96564.63;4996036;28;45502;-84
2020/12/12 00:05:07;;;;;;;24.13;15.32;;;;;;;2.36;100.00;96573.56;4985745;28;45317;-84
2020/12/12 00:07:33;;;;;;;25.67;16.85;;;;;;;2.38;100.00;96552.44;4999394;28;45367;-83
2020/12/12 00:09:58;;;;;;;23.45;16.02;;;;;;;2.40;100.00;96551.28;4999198;28;45422;-84
2020/12/12 00:12:24;;;;;;;24.83;18.20;;;;;;;2.44;100.00;96562.34;4999551;28;45311;-84
2020/12/12 00:14:49;;;;;;;26.42;17.00;;;;;;;2.44;100.00;96562.34;4999373;28;45449;-85
2020/12/12 00:17:15;;;;;;;21.52;15.07;;;;;;;2.48;100.00;96561.88;4997814;28;45572;-84
2020/12/12 00:19:40;;;;;;;19.73;14.65;;;;;;;2.53;100.00;96558.00;4997789;28;45971;-85
2020/12/12 00:22:06;;;;;;;22.42;14.77;;;;;;;2.45;100.00;96561.38;4989626;28;45253;-85
2020/12/12 00:24:31;;;;;;;23.30;13.18;;;;;;;2.42;100.00;96548.53;4998958;28;45419;-85
2020/12/12 00:26:58;;;;;;;20.25;13.27;;;;;;;2.48;100.00;96551.38;4999450;28;45414;-85
2020/12/12 00:29:24;;;;;;;17.25;12.55;;;;;;;2.48;100.00;96547.97;4998826;28;45609;-85
2020/12/12 00:31:56;;;;;;;17.08;10.80;;;;;;;2.43;100.00;96555.44;4999253;28;45233;-85
2020/12/12 00:34:23;;;;;;;209.40;26.90;;;;;;;2.21;100.00;96541.75;4999001;28;45310;-85
2020/12/12 00:36:51;;;;;;;67.78;22.60;;;;;;;2.32;100.00;96543.34;4993299;28;45423;-85
2020/12/12 00:39:18;;;;;;;24.92;16.08;;;;;;;2.37;100.00;96535.03;4997103;28;46482;-85
2020/12/12 00:41:44;;;;;;;26.50;16.58;;;;;;;2.37;100.00;96540.28;4998679;28;45440;-85
2020/12/12 00:44:10;;;;;;;32.10;18.60;;;;;;;2.44;100.00;96525.59;5013910;28;45474;-85
2020/12/12 00:46:36;;;;;;;26.55;17.38;;;;;;;2.48;100.00;96529.59;4998616;28;45442;-85
2020/12/12 00:49:02;;;;;;;33.83;20.65;;;;;;;2.44;100.00;96525.59;4998526;28;45413;-85
2020/12/12 00:51:28;;;;;;;29.85;18.77;;;;;;;2.36;100.00;96520.28;5007636;28;45285;-85
2020/12/12 00:53:54;;;;;;;30.35;18.17;;;;;;;2.30;100.00;96522.50;4997743;28;45301;-84
2020/12/12 00:56:19;;;;;;;27.20;18.48;;;;;;;2.32;100.00;96522.34;4998504;28;45506;-84
2020/12/12 00:58:45;;;;;;;25.02;16.15;;;;;;;2.42;100.00;96514.44;4998337;28;45492;-84
2020/12/12 01:01:11;;;;;;;19.60;14.20;;;;;;;2.51;100.00;96508.28;4998549;28;45291;-85
2020/12/12 01:03:37;;;;;;;27.15;16.08;;;;;;;2.51;100.00;96515.34;4993800;28;45402;-85
2020/12/12 01:06:03;;;;;;;27.88;17.48;;;;;;;2.43;100.00;96503.78;4990173;28;45598;-85
2020/12/12 01:08:29;;;;;;;22.60;14.80;;;;;;;2.49;100.00;96499.75;4998115;28;46646;-85
2020/12/12 01:10:54;;;;;;;17.75;12.90;;;;;;;2.58;100.00;96500.63;4998442;28;45358;-85
2020/12/12 01:13:20;;;;;;;20.00;13.23;;;;;;;2.57;100.00;96496.38;4998539;28;45331;-85
2020/12/12 01:15:45;;;;;;;21.13;14.15;;;;;;;2.58;100.00;96493.59;4997278;28;45401;-85
2020/12/12 01:18:11;;;;;;;17.00;11.98;;;;;;;2.62;100.00;96486.25;4997907;28;45611;-85
2020/12/12 01:20:40;;;;;;;21.83;13.90;;;;;;;2.45;100.00;96490.53;4989604;28;45247;-85
2020/12/12 01:23:07;;;;;;;67.40;36.17;;;;;;;2.25;100.00;96501.13;4996577;28;45307;-85
2020/12/12 01:25:32;;;;;;;33.95;20.48;;;;;;;2.28;100.00;96494.75;4998377;28;45495;-86
2020/12/12 01:27:58;;;;;;;28.35;18.45;;;;;;;2.30;100.00;96498.91;4998105;28;46688;-85
2020/12/12 01:30:23;;;;;;;29.50;17.60;;;;;;;2.31;100.00;96497.94;5013495;28;45435;-85
2020/12/12 01:32:49;;;;;;;29.98;19.13;;;;;;;2.24;100.00;96496.88;4998113;28;45429;-86
2020/12/12 01:35:14;;;;;;;30.13;19.15;;;;;;;2.33;100.00;96505.63;4998161;28;45459;-85
2020/12/12 01:37:43;;;;;;;28.13;17.60;;;;;;;2.32;100.00;96509.22;4990114;28;45371;-85
2020/12/12 01:40:09;;;;;;;28.58;17.80;;;;;;;2.24;100.00;96501.28;4997747;28;45272;-86
2020/12/12 01:42:35;;;;;;;24.30;14.50;;;;;;;2.23;100.00;96503.09;4997681;28;45450;-87
2020/12/12 01:45:00;;;;;;;23.75;14.48;;;;;;;2.28;100.00;96505.25;5013127;28;45293;-86
2020/12/12 01:47:27;;;;;;;24.58;15.27;;;;;;;2.29;100.00;96505.13;4997611;28;46607;-86
2020/12/12 01:49:53;;;;;;;23.60;14.77;;;;;;;2.31;100.00;96516.28;4998082;28;45450;-86
2020/12/12 01:52:20;;;;;;;21.17;13.88;;;;;;;2.28;100.00;96500.00;4990515;28;45450;-85
2020/12/12 01:54:46;;;;;;;16.95;11.45;;;;;;;2.27;100.00;96501.81;4997819;28;45668;-86
2020/12/12 01:57:12;;;;;;;15.50;10.63;;;;;;;2.35;100.00;96495.00;4997821;28;45502;-85
2020/12/12 01:59:38;;;;;;;15.95;11.18;;;;;;;2.39;100.00;96499.78;4997697;28;45273;-85
2020/12/12 02:02:07;;;;;;;16.10;11.02;;;;;;;2.46;100.00;96506.09;4997933;28;45238;-85
2020/12/12 02:04:36;;;;;;;20.15;12.68;;;;;;;2.49;100.00;96505.00;4980948;28;45482;-84
2020/12/12 02:07:02;;;;;;;22.20;14.07;;;;;;;2.54;100.00;96513.25;4996980;28;45245;-84
2020/12/12 02:09:27;;;;;;;23.25;15.18;;;;;;;2.57;100.00;96491.13;4997406;28;45411;-84
2020/12/12 02:11:53;;;;;;;22.60;14.82;;;;;;;2.48;100.00;96495.47;4997698;28;45240;-84
2020/12/12 02:14:18;;;;;;;22.25;14.40;;;;;;;2.48;100.00;96484.97;4998101;28;45240;-84
2020/12/12 02:16:52;;;;;;;22.33;14.38;;;;;;;2.50;100.00;96490.06;5000802;28;46313;-84
2020/12/12 02:19:17;;;;;;;24.42;14.25;;;;;;;2.51;100.00;96491.72;5000880;28;45461;-84
2020/12/12 02:21:46;;;;;;;23.73;14.65;;;;;;;2.40;100.00;96493.56;4990120;28;45252;-84
2020/12/12 02:24:12;;;;;;;20.20;13.93;;;;;;;2.48;100.00;96492.84;5000787;28;45363;-84
2020/12/12 02:26:37;;;;;;;21.17;13.90;;;;;;;2.49;100.00;96491.88;5001047;28;46356;-84
2020/12/12 02:29:02;;;;;;;20.95;13.85;;;;;;;2.54;100.00;96504.53;5001018;28;45473;-83
2020/12/12 02:31:28;;;;;;;21.75;13.75;;;;;;;2.54;100.00;96497.50;5001105;28;45445;-84
2020/12/12 02:33:53;;;;;;;21.65;13.95;;;;;;;2.54;100.00;96501.91;5000826;28;45472;-83
2020/12/12 02:36:19;;;;;;;24.17;14.50;;;;;;;2.50;100.00;96487.44;4999020;28;45919;-83
2020/12/12 02:38:44;;;;;;;22.10;14.88;;;;;;;2.38;100.00;96495.53;4994626;28;45324;-84
2020/12/12 02:41:10;;;;;;;22.05;14.50;;;;;;;2.54;100.00;96486.16;5000708;28;45323;-84
2020/12/12 02:43:36;;;;;;;20.58;13.05;;;;;;;2.53;100.00;96489.75;5000810;28;45549;-83
2020/12/12 02:46:01;;;;;;;22.30;14.15;;;;;;;2.53;100.00;96487.13;5000547;28;45320;-83
2020/12/12 02:48:27;;;;;;;21.67;13.98;;;;;;;2.57;100.00;96484.09;5000679;28;45229;-83
2020/12/12 02:50:52;;;;;;;21.15;13.30;;;;;;;2.62;100.00;96481.84;4999348;28;45509;-83
2020/12/12 02:53:18;;;;;;;20.75;13.32;;;;;;;2.58;100.00;96483.09;4994930;28;45403;-83
2020/12/12 02:55:43;;;;;;;20.98;12.82;;;;;;;2.56;100.00;96477.19;5000056;28;46188;-83
2020/12/12 02:58:09;;;;;;;17.27;11.45;;;;;;;2.51;99.71;96471.56;5000329;28;45248;-83
2020/12/12 03:00:34;;;;;;;17.20;11.85;;;;;;;2.59;99.82;96470.78;5000924;28;45217;-83
2020/12/12 03:02:59;;;;;;;19.23;11.88;;;;;;;2.51;100.00;96468.94;4995235;28;45260;-83
2020/12/12 03:05:25;;;;;;;20.02;12.10;;;;;;;2.25;100.00;96455.69;4987196;28;45436;-83
2020/12/12 03:07:50;;;;;;;17.83;11.85;;;;;;;2.19;100.00;96467.59;5000241;28;45241;-83
2020/12/12 03:10:16;;;;;;;21.02;13.35;;;;;;;2.31;100.00;96463.81;4999241;28;45442;-83
2020/12/12 03:12:41;;;;;;;20.08;12.70;;;;;;;2.39;100.00;96457.00;5000552;28;45282;-83
2020/12/12 03:15:09;;;;;;;19.15;11.38;;;;;;;2.40;100.00;96456.03;5000259;28;46301;-83
2020/12/12 03:17:36;;;;;;;18.08;11.77;;;;;;;2.52;100.00;96451.38;4999958;28;45541;-84
2020/12/12 03:20:06;;;;;;;16.75;11.23;;;;;;;2.58;100.00;96458.66;4996251;28;45326;-84
2020/12/12 03:22:32;;;;;;;18.27;12.25;;;;;;;2.57;99.68;96444.72;4993902;28;45511;-84
2020/12/12 03:24:58;;;;;;;19.25;13.45;;;;;;;2.47;99.81;96443.97;5000308;28;45296;-84
2020/12/12 03:27:23;;;;;;;22.10;13.70;;;;;;;2.39;100.00;96443.88;5000064;28;45449;-83
2020/12/12 03:29:49;;;;;;;19.48;12.20;;;;;;;2.36;100.00;96444.19;5000461;28;45414;-84
2020/12/12 03:32:14;;;;;;;21.67;14.27;;;;;;;2.34;100.00;96446.94;5000053;28;45713;-84
2020/12/12 03:34:40;;;;;;;20.80;13.80;;;;;;;2.40;100.00;96448.97;5000000;28;46091;-83
2020/12/12 03:37:07;;;;;;;24.88;14.40;;;;;;;2.46;100.00;96448.38;4991870;28;45262;-84
2020/12/12 03:39:33;;;;;;;25.52;15.93;;;;;;;2.52;99.68;96452.22;4999988;28;45216;-84
2020/12/12 03:41:58;;;;;;;22.33;14.35;;;;;;;2.53;100.00;96453.03;4999577;28;45359;-83
2020/12/12 03:44:24;;;;;;;21.73;14.40;;;;;;;2.51;100.00;96442.69;4999556;28;45418;-83
2020/12/12 03:46:49;;;;;;;19.38;13.10;;;;;;;2.51;100.00;96440.06;5014847;28;45289;-84
2020/12/12 03:49:15;;;;;;;20.08;13.20;;;;;;;2.52;100.00;96439.09;5000056;28;45232;-84
2020/12/12 03:51:40;;;;;;;20.27;13.02;;;;;;;2.41;100.00;96445.38;4999731;28;45352;-84
2020/12/12 03:54:06;;;;;;;21.38;13.95;;;;;;;2.26;100.00;96439.81;4999134;28;45313;-83
2020/12/12 03:56:31;;;;;;;27.88;14.32;;;;;;;2.18;100.00;96437.94;4999221;28;45228;-84
2020/12/12 03:58:57;;;;;;;24.13;15.02;;;;;;;2.14;100.00;96448.84;4999724;28;45312;-83
2020/12/12 04:01:22;;;;;;;20.52;13.65;;;;;;;2.21;100.00;96442.06;5014476;28;45612;-83
2020/12/12 04:03:48;;;;;;;22.30;13.93;;;;;;;2.35;100.00;96439.91;4988038;28;46076;-84
2020/12/12 04:06:13;;;;;;;36.75;19.85;;;;;;;2.17;100.00;96441.53;4992430;28;45349;-83
2020/12/12 04:08:39;;;;;;;40.17;24.02;;;;;;;2.11;100.00;96438.66;4999371;28;45478;-83
2020/12/12 04:11:04;;;;;;;30.77;20.38;;;;;;;2.29;100.00;96431.66;4999550;28;45522;-83
2020/12/12 04:13:30;;;;;;;28.67;17.80;;;;;;;2.38;100.00;96432.56;4999219;28;45441;-84
2020/12/12 04:15:56;;;;;;;26.27;16.17;;;;;;;2.37;100.00;96438.78;4999379;28;45462;-83
2020/12/12 04:18:22;;;;;;;31.70;17.85;;;;;;;2.25;100.00;96435.56;4999335;28;45404;-84
2020/12/12 04:20:48;;;;;;;39.65;17.98;;;;;;;2.15;100.00;96440.00;4989204;28;45198;-84
2020/12/12 04:23:14;;;;;;;31.65;18.83;;;;;;;2.15;100.00;96437.38;4998251;28;46344;-84
2020/12/12 04:25:39;;;;;;;35.10;18.88;;;;;;;2.01;100.00;96438.72;4999411;28;45282;-83
2020/12/12 04:28:05;;;;;;;25.10;15.45;;;;;;;2.15;100.00;96435.59;4999339;28;45482;-83
2020/12/12 04:30:30;;;;;;;29.02;15.55;;;;;;;2.29;100.00;96436.06;4999375;28;45412;-84
2020/12/12 04:32:56;;;;;;;116.95;19.73;;;;;;;2.14;100.00;96425.25;4998958;28;46500;-84
2020/12/12 04:35:21;;;;;;;46.72;16.15;;;;;;;2.17;100.00;96432.81;4997827;28;45713;-83
2020/12/12 04:37:47;;;;;;;53.83;16.02;;;;;;;2.31;100.00;96440.22;4990335;28;45449;-83
2020/12/12 04:40:13;;;;;;;47.92;15.63;;;;;;;2.30;100.00;96438.56;4998588;28;45536;-83
2020/12/12 04:42:42;;;;;;;60.30;18.38;;;;;;;2.31;100.00;96437.59;4998638;28;46308;-83
2020/12/12 04:45:10;;;;;;;108.57;20.67;;;;;;;2.11;100.00;96436.88;4998979;28;45401;-83
2020/12/12 04:47:35;;;;;;;296.05;30.15;;;;;;;2.03;100.00;96445.47;4998731;28;45281;-83
2020/12/12 04:50:01;;;;;;;36.97;18.88;;;;;;;2.07;100.00;96439.91;4999106;28;45400;-84
2020/12/12 04:52:34;;;;;;;150.75;24.55;;;;;;;2.12;100.00;96443.78;4990331;28;45561;-83
2020/12/12 04:55:05;;;;;;;36.47;17.90;;;;;;;2.12;100.00;96445.56;4998263;28;45553;-83
2020/12/12 04:57:34;;;;;;;73.32;20.42;;;;;;;2.16;100.00;96450.38;4998954;28;45328;-84
2020/12/12 05:00:05;;;;;;;31.05;17.80;;;;;;;2.20;100.00;96448.25;4998662;28;45329;-84
2020/12/12 05:02:32;;;;;;;53.00;19.10;;;;;;;2.26;100.00;96449.47;4996702;28;45552;-84
2020/12/12 05:04:57;;;;;;;44.08;17.55;;;;;;;2.28;100.00;96445.75;4981830;28;45228;-83
2020/12/12 05:07:23;;;;;;;38.97;17.05;;;;;;;2.38;100.00;96455.34;5013822;28;45293;-83
2020/12/12 05:09:48;;;;;;;45.88;17.17;;;;;;;2.28;100.00;96453.63;4998462;28;45489;-84
2020/12/12 05:12:14;;;;;;;36.95;16.75;;;;;;;2.36;100.00;96452.06;4998556;28;46482;-83
2020/12/12 05:14:40;;;;;;;32.92;17.63;;;;;;;2.40;100.00;96450.78;4998487;28;45244;-84
2020/12/12 05:17:08;;;;;;;30.75;16.88;;;;;;;2.38;100.00;96450.09;4998557;28;45450;-83
2020/12/12 05:19:33;;;;;;;27.55;17.50;;;;;;;2.48;100.00;96456.09;4998090;28;45498;-84
2020/12/12 05:22:02;;;;;;;31.25;18.70;;;;;;;2.47;100.00;96449.22;4987965;28;45422;-83
2020/12/12 05:24:28;;;;;;;31.80;18.90;;;;;;;2.24;100.00;96448.81;4998253;28;45173;-84
2020/12/12 05:26:59;;;;;;;28.88;17.40;;;;;;;2.42;100.00;96459.34;4998497;28;45471;-83
2020/12/12 05:29:25;;;;;;;42.15;19.55;;;;;;;2.37;100.00;96456.31;4998236;28;45403;-84
2020/12/12 05:31:50;;;;;;;33.90;18.33;;;;;;;2.31;100.00;96455.94;4998101;28;46167;-84
2020/12/12 05:34:17;;;;;;;51.08;18.60;;;;;;;2.31;100.00;96460.34;4998081;28;45420;-84
2020/12/12 05:36:45;;;;;;;65.68;19.98;;;;;;;2.10;100.00;96464.06;4993335;28;45232;-84
2020/12/12 05:39:14;;;;;;;51.22;20.67;;;;;;;2.11;100.00;96463.09;4995872;28;45312;-83
2020/12/12 05:41:41;;;;;;;65.78;21.15;;;;;;;2.20;100.00;96469.25;4997805;28;45448;-83
2020/12/12 05:44:07;;;;;;;28.92;17.70;;;;;;;2.28;100.00;96471.16;4997886;28;45533;-84
2020/12/12 05:46:32;;;;;;;31.42;18.80;;;;;;;2.40;100.00;96469.16;4997864;28;45253;-84
2020/12/12 05:48:59;;;;;;;36.38;21.23;;;;;;;2.16;100.00;96470.50;4997070;28;45237;-84
2020/12/12 05:51:28;;;;;;;39.05;22.65;;;;;;;2.14;100.00;96464.59;4991877;28;46105;-84
2020/12/12 05:53:55;;;;;;;52.10;24.95;;;;;;;2.09;100.00;96472.91;4996921;28;45410;-84
2020/12/12 05:56:22;;;;;;;37.78;21.73;;;;;;;2.17;100.00;96473.00;4997397;28;45515;-83
2020/12/12 05:58:48;;;;;;;41.85;23.33;;;;;;;2.13;100.00;96481.28;4997727;28;45530;-84
2020/12/12 06:01:19;;;;;;;38.85;21.38;;;;;;;2.29;100.00;96476.25;4997787;28;46224;-84
2020/12/12 06:03:53;;;;;;;31.60;18.73;;;;;;;2.38;100.00;96484.22;4987220;28;45580;-84
2020/12/12 06:06:24;;;;;;;29.50;18.35;;;;;;;2.44;100.00;96484.44;4995524;28;45562;-84
2020/12/12 06:09:04;;;;;;;;;;;;;;;2.39;100.00;96486.69;4996839;28;45199;-83
2020/12/12 06:11:30;;;;;;;36.55;22.15;;;;;;;2.27;100.00;96491.31;4996758;28;45276;-83
2020/12/12 06:14:04;;;;;;;57.42;36.92;;;;;;;2.30;100.00;96484.94;4996619;28;45268;-83
2020/12/12 06:16:31;;;;;;;50.15;32.10;;;;;;;2.40;100.00;96487.50;4995027;28;45378;-83
2020/12/12 06:19:14;;;;;;;29.90;19.55;;;;;;;2.49;100.00;96486.63;4997030;28;45533;-84
2020/12/12 06:21:42;;;;;;;28.95;16.75;;;;;;;2.42;100.00;96493.44;4994027;28;46484;-84
2020/12/12 06:24:10;;;;;;;25.65;16.25;;;;;;;2.47;100.00;96492.00;4996434;28;45233;-83
2020/12/12 06:27:06;;;;;;;28.05;17.88;;;;;;;2.54;100.00;96489.63;4997083;28;45289;-84
2020/12/12 06:29:41;;;;;;;26.02;16.55;;;;;;;2.55;100.00;96495.69;4992615;28;45709;-84
2020/12/12 06:32:13;;;;;;;24.75;15.23;;;;;;;2.36;100.00;96496.66;4996118;28;46458;-89
2020/12/12 06:34:46;;;;;;;26.27;15.02;;;;;;;2.31;100.00;96492.69;4989168;28;45399;-83
2020/12/12 06:37:38;;;;;;;25.63;16.00;;;;;;;2.37;100.00;96493.06;4995978;28;45415;-83
2020/12/12 06:40:05;;;;;;;23.48;15.55;;;;;;;2.26;100.00;96504.56;4993961;28;45458;-84
2020/12/12 06:42:35;;;;;;;33.42;18.60;;;;;;;2.10;100.00;96499.94;4996469;28;45539;-83
2020/12/12 06:45:03;;;;;;;22.93;16.13;;;;;;;2.24;100.00;96501.28;4994999;28;45490;-85
2020/12/12 06:47:40;;;;;;;24.02;15.75;;;;;;;2.41;100.00;96494.41;4996392;28;45584;-83
2020/12/12 06:50:07;;;;;;;26.85;16.60;;;;;;;2.50;100.00;96503.19;4996543;28;45517;-84
2020/12/12 06:52:33;;;;;;;28.17;17.90;;;;;;;2.54;100.00;96509.78;4995600;28;46011;-84
2020/12/12 06:55:07;;;;;;;26.83;15.63;;;;;;;2.52;100.00;96506.47;4994270;28;45363;-84
2020/12/12 06:57:43;;;;;;;21.70;14.27;;;;;;;2.41;100.00;96515.41;4996112;28;45294;-85
2020/12/12 07:00:20;;;;;;;22.55;14.95;;;;;;;2.53;100.00;96518.63;5012838;28;45773;-86
2020/12/12 07:03:07;;;;;;;26.70;16.42;;;;;;;2.50;100.00;96518.94;5014670;28;48652;-87
2020/12/12 07:05:37;;;;;;;22.92;15.77;;;;;;;2.45;100.00;96528.06;5043018;28;45530;-84
2020/12/12 07:08:11;;;;;;;25.25;16.20;;;;;;;2.56;100.00;96528.84;5017897;28;45269;-84
2020/12/12 07:10:44;;;;;;;26.75;17.38;;;;;;;2.50;100.00;96532.88;5014178;28;45642;-84
2020/12/12 07:13:12;;;;;;;27.58;18.13;;;;;;;2.53;100.00;96543.09;5012070;28;45659;-81
2020/12/12 07:15:38;;;;;;;30.85;18.48;;;;;;;2.58;100.00;96546.09;5015359;28;45344;-82
2020/12/12 07:18:08;;;;;;;46.80;28.60;;;;;;;2.62;100.00;96544.00;5018447;28;45677;-79
2020/12/12 07:20:43;;;;;;;36.95;24.67;;;;;;;2.56;100.00;96545.41;5017442;28;45677;-82
2020/12/12 07:23:09;;;;;;;31.35;19.80;;;;;;;2.63;100.00;96541.22;5008451;28;45510;-83
2020/12/12 07:25:35;;;;;;;31.25;18.45;;;;;;;2.55;100.00;96559.53;5013766;28;45439;-83
2020/12/12 07:28:01;;;;;;;28.00;19.00;;;;;;;2.47;100.00;96559.44;5016014;28;45521;-82
2020/12/12 07:30:26;;;;;;;37.22;20.67;;;;;;;2.40;100.00;96569.66;5018785;28;45485;-83
2020/12/12 07:32:52;;;;;;;38.58;21.00;;;;;;;2.43;100.00;96572.00;5018977;28;45403;-84
2020/12/12 07:35:18;;;;;;;30.08;18.50;;;;;;;2.41;100.00;96570.50;5019214;28;45410;-84
2020/12/12 07:37:44;;;;;;;28.95;18.65;;;;;;;2.55;100.00;96577.03;5018693;28;45430;-83
2020/12/12 07:40:09;;;;;;;33.70;20.80;;;;;;;2.58;100.00;96579.38;5018845;28;45360;-81
2020/12/12 07:42:35;;;;;;;34.67;20.27;;;;;;;2.52;100.00;96575.56;5018867;28;45994;-83
2020/12/12 07:45:38;;;;;;;36.22;21.33;;;;;;;2.53;100.00;96582.47;5017494;28;45268;-86
2020/12/12 07:48:00;;;;;;;37.03;20.60;;;;;;;2.52;100.00;96588.69;5016922;28;45519;-84
2020/12/12 07:50:26;;;;;;;39.47;23.10;;;;;;;2.34;100.00;96588.63;5019048;28;45407;-85
2020/12/12 07:52:51;;;;;;;40.22;23.17;;;;;;;2.24;100.00;96587.84;5018553;28;46666;-84
2020/12/12 07:55:21;;;;;;;42.63;25.77;;;;;;;2.41;100.00;96592.31;5018721;28;45454;-86
2020/12/12 07:57:54;;;;;;;42.65;24.77;;;;;;;2.42;100.00;96595.78;5018733;28;45233;-87
2020/12/12 08:00:20;;;;;;;37.20;23.80;;;;;;;2.56;100.00;96603.16;5015475;28;45391;-84
2020/12/12 08:02:46;;;;;;;39.25;23.92;;;;;;;2.56;100.00;96608.41;5018415;28;45304;-85
2020/12/12 08:05:11;;;;;;;36.13;22.58;;;;;;;2.65;100.00;96605.88;5043218;28;46098;-88
2020/12/12 08:07:37;;;;;;;42.20;25.60;;;;;;;2.53;100.00;96605.25;5018623;28;45260;-88
2020/12/12 08:10:08;;;;;;;44.30;24.98;;;;;;;2.65;100.00;96613.75;5017379;28;45331;-87
2020/12/12 08:12:34;;;;;;;38.20;24.17;;;;;;;2.74;100.00;96612.88;5016700;28;45399;-85
2020/12/12 08:15:07;;;;;;;44.75;25.35;;;;;;;2.78;100.00;96629.97;5033716;28;45788;-86
2020/12/12 08:17:33;;;;;;;46.60;27.52;;;;;;;2.77;100.00;96634.41;5018788;28;45491;-84
2020/12/12 08:19:59;;;;;;;44.50;27.25;;;;;;;2.80;100.00;96629.84;5018486;28;45305;-83
2020/12/12 08:22:25;;;;;;;43.38;26.25;;;;;;;2.81;100.00;96634.94;5033372;28;48241;-85
2020/12/12 08:24:51;;;;;;;48.95;27.92;;;;;;;2.71;100.00;96635.00;5017889;28;45432;-85
2020/12/12 08:27:22;;;;;;;42.05;26.80;;;;;;;2.65;100.00;96637.38;5033736;28;45429;-84
2020/12/12 08:30:07;;;;;;;43.47;26.85;;;;;;;2.69;100.00;96644.84;5017106;28;45412;-83
2020/12/12 08:32:37;;;;;;;51.17;30.30;;;;;;;2.52;100.00;96654.28;5018308;28;46555;-84
2020/12/12 08:35:22;;;;;;;43.58;26.90;;;;;;;2.70;100.00;96650.88;5014924;28;45931;-82
2020/12/12 08:38:11;;;;;;;38.13;22.40;;;;;;;2.62;100.00;96660.31;5017939;28;45458;-83
2020/12/12 08:40:44;;;;;;;32.72;20.98;;;;;;;2.77;100.00;96667.72;5026877;28;45609;-85
2020/12/12 08:43:11;;;;;;;37.88;23.27;;;;;;;2.83;100.00;96667.13;5016263;28;45478;-83
2020/12/12 08:45:59;;;;;;;59.42;33.97;;;;;;;2.70;100.00;96667.47;5017934;28;45484;-83
2020/12/12 08:48:35;;;;;;;49.08;30.23;;;;;;;2.85;100.00;96682.75;5010993;28;45372;-86
2020/12/12 08:51:03;;;;;;;52.80;31.60;;;;;;;2.91;100.00;96682.16;5033093;28;45459;-85
2020/12/12 08:53:36;;;;;;;49.42;30.90;;;;;;;2.89;100.00;96687.56;5017522;28;45622;-82
2020/12/12 08:56:26;;;;;;;61.88;35.60;;;;;;;2.84;100.00;96687.16;5016797;28;45427;-83
2020/12/12 08:58:57;;;;;;;58.63;33.97;;;;;;;2.90;100.00;96696.28;5015658;28;45365;-80
2020/12/12 09:01:42;;;;;;;61.22;35.13;;;;;;;2.98;100.00;96690.28;5016365;28;45486;-81
2020/12/12 09:04:08;;;;;;;36.17;21.83;;;;;;;2.98;100.00;96696.38;5024830;28;47246;-80
2020/12/12 09:06:52;;;;;;;33.38;18.73;;;;;;;2.90;100.00;96699.72;5017888;28;45493;-82
2020/12/12 09:09:18;;;;;;;28.35;17.35;;;;;;;3.04;100.00;96706.28;5016668;28;45224;-82
2020/12/12 09:12:08;;;;;;;34.75;21.05;;;;;;;3.11;100.00;96705.69;5011030;28;45292;-81
2020/12/12 09:14:41;;;;;;;37.30;24.00;;;;;;;3.11;100.00;96706.53;5009762;28;45438;-83
2020/12/12 09:17:09;;;;;;;47.45;28.83;;;;;;;2.90;100.00;96720.72;5017259;28;45328;-81
2020/12/12 09:19:36;;;;;;;44.30;28.30;;;;;;;2.94;100.00;96720.44;5017592;28;45391;-81
2020/12/12 09:22:06;;;;;;;42.47;26.73;;;;;;;3.05;100.00;96721.06;5017295;28;45434;-82
2020/12/12 09:24:31;;;;;;;40.58;27.58;;;;;;;3.16;100.00;96722.69;5017086;28;45446;-81
2020/12/12 09:26:58;;;;;;;43.63;27.35;;;;;;;3.03;100.00;96728.28;5017183;28;45310;-82
2020/12/12 09:29:24;;;;;;;35.28;22.70;;;;;;;3.12;100.00;96731.84;5016136;28;45406;-83
2020/12/12 09:31:51;;;;;;;45.05;30.00;;;;;;;3.21;100.00;96735.38;5015595;28;46084;-83
2020/12/12 09:34:18;;;;;;;43.17;29.80;;;;;;;3.31;100.00;96735.31;5013194;28;45494;-83
2020/12/12 09:36:44;;;;;;;38.85;26.90;;;;;;;3.38;100.00;96740.81;5014620;28;45407;-82
2020/12/12 09:39:10;;;;;;;40.85;26.40;;;;;;;3.39;100.00;96748.56;5017423;28;45427;-85
2020/12/12 09:41:35;;;;;;;40.90;25.92;;;;;;;3.43;100.00;96746.44;5015531;28;45359;-83
2020/12/12 09:44:00;;;;;;;43.80;29.00;;;;;;;3.45;100.00;96749.75;5015888;28;45423;-84
2020/12/12 09:46:26;;;;;;;55.10;34.00;;;;;;;3.58;100.00;96759.91;5023994;28;45502;-85
2020/12/12 09:48:52;;;;;;;38.38;27.00;;;;;;;3.53;100.00;96756.91;5024456;28;45562;-84
2020/12/12 09:51:19;;;;;;;28.65;20.23;;;;;;;3.51;100.00;96759.66;5016306;28;45691;-80
2020/12/12 09:53:46;;;;;;;33.33;22.40;;;;;;;3.53;100.00;96751.66;5016901;28;46088;-81
2020/12/12 09:56:13;;;;;;;32.88;21.65;;;;;;;3.44;100.00;96763.88;5011363;28;45205;-85
2020/12/12 09:58:39;;;;;;;31.40;20.85;;;;;;;3.49;100.00;96759.84;5015349;28;45536;-83
2020/12/12 10:01:05;;;;;;;30.15;20.33;;;;;;;3.53;100.00;96764.78;5015274;28;45693;-83
2020/12/12 10:03:31;;;;;;;25.23;17.55;;;;;;;3.60;100.00;96758.81;5014891;28;46930;-83
2020/12/12 10:05:56;;;;;;;23.95;15.88;;;;;;;3.63;100.00;96760.28;5016686;28;45340;-84
2020/12/12 10:08:22;;;;;;;26.67;17.42;;;;;;;3.63;100.00;96758.50;5013689;28;45466;-84
2020/12/12 10:10:47;;;;;;;31.08;19.40;;;;;;;3.64;100.00;96767.22;5008397;28;45439;-85
2020/12/12 10:13:13;;;;;;;29.45;19.80;;;;;;;3.67;100.00;96766.91;5014768;28;45467;-85
2020/12/12 10:15:38;;;;;;;24.98;17.95;;;;;;;3.77;100.00;96765.03;5024722;28;45364;-84
2020/12/12 10:18:04;;;;;;;29.80;19.63;;;;;;;3.68;100.00;96760.69;5015129;28;45534;-84
2020/12/12 10:20:30;;;;;;;28.85;18.95;;;;;;;3.80;100.00;96762.09;5016682;28;45467;-85
2020/12/12 10:22:55;;;;;;;29.50;19.35;;;;;;;3.67;100.00;96761.66;5014640;28;45352;-84
2020/12/12 10:25:21;;;;;;;30.40;19.67;;;;;;;3.60;100.00;96765.84;5013078;28;45376;-84
2020/12/12 10:27:47;;;;;;;31.13;20.20;;;;;;;3.71;100.00;96765.63;5028915;28;45697;-85
2020/12/12 10:30:14;;;;;;;25.95;18.23;;;;;;;3.77;100.00;96765.03;5004857;28;45601;-84
2020/12/12 10:32:40;;;;;;;29.75;21.13;;;;;;;3.83;100.00;96766.25;5014012;28;45389;-84
2020/12/12 10:35:08;;;;;;;33.05;21.30;;;;;;;3.79;100.00;96773.59;5031634;28;45486;-85
2020/12/12 10:37:34;;;;;;;39.83;24.08;;;;;;;3.77;100.00;96772.94;5013468;28;45209;-84
2020/12/12 10:42:34;;;;;;;37.13;24.58;;;;;;;3.70;100.00;96769.25;5018298;28;46203;-84
2020/12/12 10:44:59;;;;;;;39.00;22.27;;;;;;;3.73;100.00;96774.19;5019221;28;45254;-83
2020/12/12 10:47:25;;;;;;;30.85;20.58;;;;;;;3.83;100.00;96778.56;5033663;28;45370;-84
2020/12/12 10:49:51;;;;;;;27.20;17.45;;;;;;;3.77;100.00;96780.00;5008736;28;45291;-84
2020/12/12 10:52:16;;;;;;;31.90;20.15;;;;;;;3.75;100.00;96784.59;5017038;28;46520;-83
2020/12/12 10:54:45;;;;;;;30.98;19.98;;;;;;;3.73;100.00;96789.97;5019295;28;45240;-84
2020/12/12 10:57:11;;;;;;;28.08;19.50;;;;;;;3.70;100.00;96797.34;5019804;28;45496;-82
2020/12/12 10:59:36;;;;;;;29.73;19.85;;;;;;;3.74;100.00;96786.38;5019742;28;45530;-84
2020/12/12 11:02:02;;;;;;;28.33;19.25;;;;;;;3.79;100.00;96797.28;5011647;28;46163;-84
2020/12/12 11:04:27;;;;;;;26.58;18.58;;;;;;;3.77;100.00;96796.59;5025162;28;45427;-84
2020/12/12 11:06:53;;;;;;;27.23;18.05;;;;;;;3.77;100.00;96796.59;5017423;28;45600;-80
2020/12/12 11:09:18;;;;;;;29.80;20.02;;;;;;;3.68;100.00;96796.69;5019006;28;45278;-82
2020/12/12 11:11:44;;;;;;;26.02;17.92;;;;;;;3.80;100.00;96806.81;5018721;28;46179;-81
2020/12/12 11:14:10;;;;;;;25.83;17.70;;;;;;;3.78;100.00;96810.59;5017666;28;45474;-82
2020/12/12 11:16:36;;;;;;;39.30;25.35;;;;;;;3.90;100.00;96816.44;5018656;28;46228;-82
2020/12/12 11:19:03;;;;;;;54.13;34.03;;;;;;;3.77;100.00;96815.00;5018698;28;45332;-82
2020/12/12 11:21:28;;;;;;;29.27;19.08;;;;;;;3.84;100.00;96814.41;5016144;28;46812;-82